Alert, Canada
Current Conditions -  °F | °C
As of 3:00 AM on Thursday 18 Dec 2014 (Local Time) from CYLT Reporting Station
Light Snow Light Snow  
Wind Chill: -25°   Ceiling: 6000
Heat Index: -11°   Visibility: 4mi
Dew Point: -18°   Wind: 6mph
Humidity: 70%   Direction: 310°NW
Pressure: 29.91"   Gusts: NA
Location:  82.47°N, 62.5°W
Report Text: CYLT 180800Z 31005KT 4SM -SN OVC060 M24/M28 A2991 RMK SC8SLP135
Loading
Personal Weather Stations






























Interactive Weather Map New forecast layout! Learn more

10-Day Weather Forecast

Advertisements
Track Severe Weather on mobile